Princess Anne, Maryland
Current Conditions -  °F | °C
As of 5:54 AM on Thursday 18 Dec 2014 (Local Time) from KSBY Reporting Station
Clear Clear  
Wind Chill: 32°   Ceiling: Unl
Heat Index: 37°   Visibility: 10mi
Dew Point: 22°   Wind: 7mph
Humidity: 54%   Direction: 290°WNW
Pressure: 30.09"   Gusts: NA
Location:  38.2°N, 75.69°W
Report Text: KSBY 181054Z 29006KT 10SM CLR 03/M06 A3009 RMK AO2 SLP192 T00281056
Loading
Personal Weather Stations






























Interactive Weather Map New forecast layout! Learn more

10-Day Weather Forecast

Advertisements
Track Severe Weather on mobile